Orenge 7 — JL6148 — position and weather

sailwx.info

Track history (hours):
 
Tides and Currents Weather Stations Pressure Air Temp Water Temp Dewpoint Dewpoint Depression Visibility Wind Speed Wind Dir Waves Ship Positions

Orenge 7

Last reported at 2017-Dec-18 05:00 UTC. Time now 2017-Dec-18 05:19 UTC.
Position N 34°36' E 135°12'.

Length 163 m; draft 4.9 m.

Type: Passenger vessel. MMSI: 431500186.

Date/timePositionNaut miles runAvg speedWind from/ knotsBaromVisibWave heightAir tempDewpointWater temp
2017-Dec-18 05:00N 34°36' E 135°12'918.3
2017-Dec-18 04:31N 34°38' E 135°23'3 4.8
2017-Dec-18 03:58N 34°37' E 135°26'0 0.0
2017-Dec-18 03:25N 34°37' E 135°26'0 0.0
2017-Dec-18 02:58N 34°37' E 135°26'0 0.0
2017-Dec-18 02:28N 34°37' E 135°26'0 0.0
2017-Dec-18 01:58N 34°37' E 135°26'0 0.0
2017-Dec-18 01:28N 34°37' E 135°26'0 0.0
2017-Dec-18 00:58N 34°37' E 135°26'0 0.0
2017-Dec-18 00:28N 34°37' E 135°26'0 0.0
2017-Dec-17 23:58N 34°37' E 135°26'0 0.0
2017-Dec-17 23:28N 34°37' E 135°26'0 0.0
2017-Dec-17 22:58N 34°37' E 135°26'0 0.0
2017-Dec-17 22:28N 34°37' E 135°26'0 0.0
2017-Dec-17 21:58N 34°37' E 135°26'0 0.0
2017-Dec-17 21:28N 34°37' E 135°26'0 0.1
2017-Dec-17 21:00N 34°37' E 135°26'612.0
2017-Dec-17 20:31N 34°35' E 135°19'817.0
2017-Dec-17 20:00N 34°35' E 135°09'816.3
2017-Dec-17 19:30N 34°37' E 134°59'917.8
2017-Dec-17 19:01N 34°33' E 134°49'917.7
2017-Dec-17 18:30N 34°29' E 134°40'918.2
2017-Dec-17 18:00N 34°26' E 134°29'918.1
2017-Dec-17 17:30N 34°23' E 134°19'919.3
2017-Dec-17 17:01N 34°26' E 134°07'1415.0
2017-Dec-17 16:04N 34°23' E 133°51'918.5
2017-Dec-17 15:34N 34°18' E 133°41'20 2.8
2017-Dec-17 08:17N 34°27' E 134°03'819.6
2017-Dec-17 07:52N 34°25' E 134°13'720.2
2017-Dec-17 07:30N 34°25' E 134°22'1121.2
2017-Dec-17 07:00N 34°30' E 134°34'1020.5
2017-Dec-17 06:31N 34°33' E 134°45'1020.1
2017-Dec-17 06:00N 34°37' E 134°56'611.2
2017-Dec-17 05:31N 34°36' E 135°03'714.0
2017-Dec-17 05:00N 34°36' E 135°12'1019.1
2017-Dec-17 04:30N 34°38' E 135°23'2 4.2
2017-Dec-17 03:56N 34°37' E 135°26'0 0.0
2017-Dec-17 03:29N 34°37' E 135°26'0 0.0
2017-Dec-17 02:59N 34°37' E 135°26'0 0.0
2017-Dec-17 02:29N 34°37' E 135°26'0 0.0
2017-Dec-17 01:59N 34°37' E 135°26'0 0.0
2017-Dec-17 01:26N 34°37' E 135°26'0 0.0
2017-Dec-17 00:59N 34°37' E 135°26'0 0.0
2017-Dec-17 00:29N 34°37' E 135°26'0 0.0
2017-Dec-16 23:59N 34°37' E 135°26'0 0.0
2017-Dec-16 23:26N 34°37' E 135°26'0 0.0
2017-Dec-16 22:59N 34°37' E 135°26'0 0.0
2017-Dec-16 22:29N 34°37' E 135°26'0 0.0
2017-Dec-16 21:59N 34°37' E 135°26'0 0.0
2017-Dec-16 21:29N 34°37' E 135°26'0 0.1
2017-Dec-16 21:00N 34°37' E 135°26'611.4
2017-Dec-16 20:31N 34°36' E 135°19'917.9
2017-Dec-16 20:01N 34°35' E 135°08'917.2
2017-Dec-16 19:30N 34°37' E 134°58'918.8
2017-Dec-16 19:00N 34°32' E 134°48'918.6
2017-Dec-16 18:30N 34°29' E 134°37'918.9
2017-Dec-16 18:00N 34°25' E 134°27'919.0
2017-Dec-16 17:30N 34°23' E 134°16'1019.7
2017-Dec-16 17:00N 34°26' E 134°04'1 0.0
2017-Dec-15 17:24N 34°27' E 134°03'1319.0
2017-Dec-15 16:44N 34°25' E 134°18'520.3
2017-Dec-15 16:31N 34°26' E 134°24'1020.5
2017-Dec-15 16:01N 34°30' E 134°35'1020.1
2017-Dec-15 15:31N 34°33' E 134°47'918.7
2017-Dec-15 15:01N 34°37' E 134°57'917.7
2017-Dec-15 14:31N 34°36' E 135°08'1020.1
2017-Dec-15 14:01N 34°37' E 135°20'5 9.7
2017-Dec-15 13:30N 34°37' E 135°26'0 0.0
2017-Dec-15 12:59N 34°37' E 135°26'0 0.0
2017-Dec-15 12:29N 34°37' E 135°26'0 0.0
2017-Dec-15 11:59N 34°37' E 135°26'0 0.4
2017-Dec-15 11:31N 34°37' E 135°26'714.3
2017-Dec-15 11:00N 34°35' E 135°17'1020.3
2017-Dec-15 10:30N 34°35' E 135°05'917.1
2017-Dec-15 10:00N 34°35' E 134°54'1020.0
2017-Dec-15 09:30N 34°31' E 134°43'1020.9
2017-Dec-15 09:00N 34°27' E 134°32'1120.8
2017-Dec-15 08:30N 34°23' E 134°20'1019.4
2017-Dec-15 08:00N 34°26' E 134°08'5 0.3
2017-Dec-14 17:54N 34°27' E 134°03'1119.5
2017-Dec-14 17:20N 34°24' E 134°16'720.6
2017-Dec-14 17:00N 34°26' E 134°24'1020.7
2017-Dec-14 16:30N 34°29' E 134°36'1020.3
2017-Dec-14 16:00N 34°33' E 134°47'1717.4
2017-Dec-14 15:00N 34°36' E 135°08'1020.0
2017-Dec-14 14:31N 34°37' E 135°20'5 9.6
2017-Dec-14 14:00N 34°37' E 135°26'0 0.0
2017-Dec-14 13:30N 34°37' E 135°26'0 0.0
2017-Dec-14 13:00N 34°37' E 135°26'0 0.0
2017-Dec-14 12:30N 34°37' E 135°26'0 0.0
2017-Dec-14 12:00N 34°37' E 135°26'1 2.8
2017-Dec-14 11:31N 34°37' E 135°24'918.1
2017-Dec-14 11:00N 34°35' E 135°14'1019.6
2017-Dec-14 10:31N 34°36' E 135°02'918.2
2017-Dec-14 10:01N 34°34' E 134°51'1020.1
2017-Dec-14 09:31N 34°30' E 134°40'1020.5
2017-Dec-14 09:00N 34°26' E 134°28'1120.1
2017-Dec-14 08:28N 34°23' E 134°16'2914.9
2017-Dec-14 06:31N 34°18' E 133°41'017.7
2017-Dec-14 06:31N 34°18' E 133°41'27 2.0
2017-Dec-13 17:05N 34°25' E 134°13'319.7
2017-Dec-13 16:56N 34°24' E 134°17'920.3
2017-Dec-13 16:30N 34°27' E 134°27'1020.5
2017-Dec-13 16:00N 34°31' E 134°38'1019.9
2017-Dec-13 15:30N 34°34' E 134°49'918.7
2017-Dec-13 15:00N 34°38' E 135°00'917.8
2017-Dec-13 14:31N 34°36' E 135°11'1019.3
2017-Dec-13 14:01N 34°38' E 135°22'3 5.7
2017-Dec-13 13:30N 34°37' E 135°26'0 0.0
2017-Dec-13 12:58N 34°37' E 135°26'0 0.0
2017-Dec-13 12:31N 34°37' E 135°26'0 0.0
2017-Dec-13 12:01N 34°37' E 135°26'0 0.2
2017-Dec-13 11:30N 34°37' E 135°26'612.9
2017-Dec-13 11:00N 34°36' E 135°18'1020.1
2017-Dec-13 10:30N 34°35' E 135°06'918.6
2017-Dec-13 10:00N 34°35' E 134°55'1020.5
2017-Dec-13 09:30N 34°31' E 134°43'1020.8
2017-Dec-13 09:00N 34°27' E 134°32'1020.8
2017-Dec-13 08:30N 34°24' E 134°20'3215.4
2017-Dec-13 06:25N 34°18' E 133°41'20 1.5
2017-Dec-12 17:18N 34°27' E 134°03'620.0
2017-Dec-12 17:00N 34°26' E 134°11'1019.3
2017-Dec-12 16:30N 34°25' E 134°22'1020.5
2017-Dec-12 16:00N 34°29' E 134°34'1019.9
2017-Dec-12 15:30N 34°33' E 134°45'919.0
2017-Dec-12 15:01N 34°36' E 134°56'816.6
2017-Dec-12 14:30N 34°36' E 135°06'1019.5
2017-Dec-12 14:01N 34°37' E 135°17'713.6
2017-Dec-12 13:31N 34°37' E 135°26'0 0.4
2017-Dec-12 13:00N 34°37' E 135°26'0 0.0
2017-Dec-12 12:30N 34°37' E 135°26'0 0.0
2017-Dec-12 12:00N 34°37' E 135°26'0 0.3
2017-Dec-12 11:30N 34°37' E 135°26'611.7
2017-Dec-12 11:00N 34°36' E 135°19'714.3
2017-Dec-12 10:30N 34°35' E 135°10'917.1
2017-Dec-12 10:00N 34°37' E 135°00'1020.9
2017-Dec-12 09:30N 34°33' E 134°49'1121.1
2017-Dec-12 09:01N 34°29' E 134°37'1121.2
2017-Dec-12 08:28N 34°25' E 134°24'1020.7
2017-Dec-12 08:00N 34°24' E 134°12'8 0.6
2017-Dec-11 17:07N 34°27' E 134°03'517.4
2017-Dec-11 16:51N 34°26' E 134°08'1017.6
2017-Dec-11 16:16N 34°25' E 134°21'518.3
2017-Dec-11 16:00N 34°26' E 134°26'918.4
2017-Dec-11 15:30N 34°30' E 134°37'918.3
2017-Dec-11 15:00N 34°33' E 134°47'918.4
2017-Dec-11 14:30N 34°37' E 134°57'816.9
2017-Dec-11 14:00N 34°36' E 135°07'1019.1
2017-Dec-11 13:30N 34°37' E 135°19'611.6
2017-Dec-11 13:00N 34°37' E 135°26'0 0.0
2017-Dec-11 12:28N 34°37' E 135°26'0 0.0
2017-Dec-11 11:55N 34°37' E 135°26'0 0.0
2017-Dec-11 11:28N 34°37' E 135°26'0 0.0
2017-Dec-11 10:58N 34°37' E 135°26'0 0.0
2017-Dec-11 10:28N 34°37' E 135°26'0 0.0
2017-Dec-11 09:58N 34°37' E 135°26'0 0.0
2017-Dec-11 09:28N 34°37' E 135°26'0 0.0
2017-Dec-11 08:58N 34°37' E 135°26'0 0.0
2017-Dec-11 08:28N 34°37' E 135°26'0 0.0
2017-Dec-11 07:58N 34°37' E 135°26'0 0.0
2017-Dec-11 07:28N 34°37' E 135°26'0 0.0
2017-Dec-11 06:52N 34°37' E 135°26'0 0.0
2017-Dec-11 06:28N 34°37' E 135°26'0 0.0
2017-Dec-11 05:58N 34°37' E 135°26'0 0.0
2017-Dec-11 05:28N 34°37' E 135°26'0 0.0
2017-Dec-11 04:58N 34°37' E 135°26'0 0.0
2017-Dec-11 04:28N 34°37' E 135°26'0 0.0
2017-Dec-11 03:58N 34°37' E 135°26'0 0.0
2017-Dec-11 03:28N 34°37' E 135°26'0 0.0
2017-Dec-11 02:55N 34°37' E 135°26'0 0.0
2017-Dec-11 02:28N 34°37' E 135°26'0 0.0
2017-Dec-11 01:58N 34°37' E 135°26'0 0.0
2017-Dec-11 01:28N 34°37' E 135°26'0 0.0
2017-Dec-11 00:58N 34°37' E 135°26'0 0.0
2017-Dec-11 00:28N 34°37' E 135°26'0 0.0
2017-Dec-10 23:58N 34°37' E 135°26'0 0.0
2017-Dec-10 23:25N 34°37' E 135°26'0 0.0
2017-Dec-10 22:58N 34°37' E 135°26'0 0.0
2017-Dec-10 22:28N 34°37' E 135°26'0 0.0
2017-Dec-10 21:58N 34°37' E 135°26'0 0.0
2017-Dec-10 21:28N 34°37' E 135°26'0 0.2
2017-Dec-10 21:00N 34°37' E 135°26'611.8
2017-Dec-10 20:30N 34°36' E 135°19'918.8
2017-Dec-10 20:00N 34°35' E 135°07'917.3
2017-Dec-10 19:30N 34°36' E 134°57'1019.0
2017-Dec-10 19:00N 34°32' E 134°47'1019.3
2017-Dec-10 18:30N 34°29' E 134°36'1019.5
2017-Dec-10 18:00N 34°25' E 134°25'918.9
2017-Dec-10 17:30N 34°24' E 134°13'917.8
2017-Dec-10 17:00N 34°26' E 134°03'2014.1
2017-Dec-10 15:36N 34°18' E 133°41'21 0.9
2017-Dec-09 17:06N 34°27' E 134°03'417.4
2017-Dec-09 16:51N 34°26' E 134°09'917.6
2017-Dec-09 16:20N 34°25' E 134°19'617.8
2017-Dec-09 16:00N 34°27' E 134°26'918.1
2017-Dec-09 15:30N 34°31' E 134°36'918.7
2017-Dec-09 15:00N 34°34' E 134°47'1019.2
2017-Dec-09 14:30N 34°37' E 134°58'918.0
2017-Dec-09 14:01N 34°36' E 135°08'918.6
2017-Dec-09 13:31N 34°37' E 135°20'510.2
2017-Dec-09 13:01N 34°37' E 135°26'0 0.0
2017-Dec-09 12:28N 34°37' E 135°26'0 0.0
2017-Dec-09 11:58N 34°37' E 135°26'0 0.0
2017-Dec-09 11:28N 34°37' E 135°26'0 0.0
2017-Dec-09 10:58N 34°37' E 135°26'0 0.0
2017-Dec-09 10:28N 34°37' E 135°26'0 0.0
2017-Dec-09 09:58N 34°37' E 135°26'0 0.0
2017-Dec-09 09:25N 34°37' E 135°26'0 0.0
2017-Dec-09 08:58N 34°37' E 135°26'0 0.0
2017-Dec-09 08:28N 34°37' E 135°26'0 0.0
2017-Dec-09 07:58N 34°37' E 135°26'0 0.0
2017-Dec-09 07:28N 34°37' E 135°26'0 0.0
2017-Dec-09 06:58N 34°37' E 135°26'0 0.0
2017-Dec-09 06:25N 34°37' E 135°26'0 0.0
2017-Dec-09 05:58N 34°37' E 135°26'0 0.0
2017-Dec-09 05:28N 34°37' E 135°26'0 0.0
2017-Dec-09 04:58N 34°37' E 135°26'0 0.0
2017-Dec-09 04:28N 34°37' E 135°26'0 0.0
2017-Dec-09 03:58N 34°37' E 135°26'0 0.0
2017-Dec-09 03:28N 34°37' E 135°26'0 0.0
2017-Dec-09 02:58N 34°37' E 135°26'0 0.0
2017-Dec-09 02:28N 34°37' E 135°26'0 0.0
2017-Dec-09 01:58N 34°37' E 135°26'0 0.0
2017-Dec-09 01:25N 34°37' E 135°26'0 0.0
2017-Dec-09 00:58N 34°37' E 135°26'0 0.0
2017-Dec-09 00:30N 34°37' E 135°26'0 0.0
2017-Dec-08 23:58N 34°37' E 135°26'0 0.0
2017-Dec-08 23:28N 34°37' E 135°26'0 0.0
2017-Dec-08 22:58N 34°37' E 135°26'0 0.0
2017-Dec-08 22:28N 34°37' E 135°26'0 0.0
2017-Dec-08 21:58N 34°37' E 135°26'0 0.0
2017-Dec-08 21:28N 34°37' E 135°26'0 0.1
2017-Dec-08 21:00N 34°37' E 135°26'612.5
2017-Dec-08 20:30N 34°35' E 135°19'918.5
2017-Dec-08 20:00N 34°35' E 135°07'1019.0
2017-Dec-08 19:31N 34°36' E 134°56'1020.2
2017-Dec-08 19:00N 34°31' E 134°45'1019.4
2017-Dec-08 18:30N 34°27' E 134°34'1019.2
2017-Dec-08 18:00N 34°24' E 134°23'1019.1
2017-Dec-08 17:30N 34°25' E 134°12'2614.6
2017-Dec-08 15:45N 34°18' E 133°41'  
Track history (hours):
 
Tides and Currents Weather Stations Pressure Air Temp Water Temp Dewpoint Dewpoint Depression Visibility Wind Speed Wind Dir Waves Ship Positions

Orenge 7

Last reported at 2017-Dec-18 05:00 UTC. Time now 2017-Dec-18 05:19 UTC.
Position N 34°36' E 135°12'.

Length 163 m; draft 4.9 m.

Type: Passenger vessel. MMSI: 431500186.

Date/timePositionNaut miles runAvg speedWind from/ knotsBaromVisibWave heightAir tempDewpointWater temp
2017-Dec-18 05:00N 34°36' E 135°12'918.3
2017-Dec-18 04:31N 34°38' E 135°23'3 4.8
2017-Dec-18 03:58N 34°37' E 135°26'0 0.0
2017-Dec-18 03:25N 34°37' E 135°26'0 0.0
2017-Dec-18 02:58N 34°37' E 135°26'0 0.0
2017-Dec-18 02:28N 34°37' E 135°26'0 0.0
2017-Dec-18 01:58N 34°37' E 135°26'0 0.0
2017-Dec-18 01:28N 34°37' E 135°26'0 0.0
2017-Dec-18 00:58N 34°37' E 135°26'0 0.0
2017-Dec-18 00:28N 34°37' E 135°26'0 0.0
2017-Dec-17 23:58N 34°37' E 135°26'0 0.0
2017-Dec-17 23:28N 34°37' E 135°26'0 0.0
2017-Dec-17 22:58N 34°37' E 135°26'0 0.0
2017-Dec-17 22:28N 34°37' E 135°26'0 0.0
2017-Dec-17 21:58N 34°37' E 135°26'0 0.0
2017-Dec-17 21:28N 34°37' E 135°26'0 0.1
2017-Dec-17 21:00N 34°37' E 135°26'612.0
2017-Dec-17 20:31N 34°35' E 135°19'817.0
2017-Dec-17 20:00N 34°35' E 135°09'816.3
2017-Dec-17 19:30N 34°37' E 134°59'917.8
2017-Dec-17 19:01N 34°33' E 134°49'917.7
2017-Dec-17 18:30N 34°29' E 134°40'918.2
2017-Dec-17 18:00N 34°26' E 134°29'918.1
2017-Dec-17 17:30N 34°23' E 134°19'919.3
2017-Dec-17 17:01N 34°26' E 134°07'1415.0
2017-Dec-17 16:04N 34°23' E 133°51'918.5
2017-Dec-17 15:34N 34°18' E 133°41'20 2.8
2017-Dec-17 08:17N 34°27' E 134°03'819.6
2017-Dec-17 07:52N 34°25' E 134°13'720.2
2017-Dec-17 07:30N 34°25' E 134°22'1121.2
2017-Dec-17 07:00N 34°30' E 134°34'1020.5
2017-Dec-17 06:31N 34°33' E 134°45'1020.1
2017-Dec-17 06:00N 34°37' E 134°56'611.2
2017-Dec-17 05:31N 34°36' E 135°03'714.0
2017-Dec-17 05:00N 34°36' E 135°12'1019.1
2017-Dec-17 04:30N 34°38' E 135°23'2 4.2
2017-Dec-17 03:56N 34°37' E 135°26'0 0.0
2017-Dec-17 03:29N 34°37' E 135°26'0 0.0
2017-Dec-17 02:59N 34°37' E 135°26'0 0.0
2017-Dec-17 02:29N 34°37' E 135°26'0 0.0
2017-Dec-17 01:59N 34°37' E 135°26'0 0.0
2017-Dec-17 01:26N 34°37' E 135°26'0 0.0
2017-Dec-17 00:59N 34°37' E 135°26'0 0.0
2017-Dec-17 00:29N 34°37' E 135°26'0 0.0
2017-Dec-16 23:59N 34°37' E 135°26'0 0.0
2017-Dec-16 23:26N 34°37' E 135°26'0 0.0
2017-Dec-16 22:59N 34°37' E 135°26'0 0.0
2017-Dec-16 22:29N 34°37' E 135°26'0 0.0
2017-Dec-16 21:59N 34°37' E 135°26'0 0.0
2017-Dec-16 21:29N 34°37' E 135°26'0 0.1
2017-Dec-16 21:00N 34°37' E 135°26'611.4
2017-Dec-16 20:31N 34°36' E 135°19'917.9
2017-Dec-16 20:01N 34°35' E 135°08'917.2
2017-Dec-16 19:30N 34°37' E 134°58'918.8
2017-Dec-16 19:00N 34°32' E 134°48'918.6
2017-Dec-16 18:30N 34°29' E 134°37'918.9
2017-Dec-16 18:00N 34°25' E 134°27'919.0
2017-Dec-16 17:30N 34°23' E 134°16'1019.7
2017-Dec-16 17:00N 34°26' E 134°04'1 0.0
2017-Dec-15 17:24N 34°27' E 134°03'1319.0
2017-Dec-15 16:44N 34°25' E 134°18'520.3
2017-Dec-15 16:31N 34°26' E 134°24'1020.5
2017-Dec-15 16:01N 34°30' E 134°35'1020.1
2017-Dec-15 15:31N 34°33' E 134°47'918.7
2017-Dec-15 15:01N 34°37' E 134°57'917.7
2017-Dec-15 14:31N 34°36' E 135°08'1020.1
2017-Dec-15 14:01N 34°37' E 135°20'5 9.7
2017-Dec-15 13:30N 34°37' E 135°26'0 0.0
2017-Dec-15 12:59N 34°37' E 135°26'0 0.0
2017-Dec-15 12:29N 34°37' E 135°26'0 0.0
2017-Dec-15 11:59N 34°37' E 135°26'0 0.4
2017-Dec-15 11:31N 34°37' E 135°26'714.3
2017-Dec-15 11:00N 34°35' E 135°17'1020.3
2017-Dec-15 10:30N 34°35' E 135°05'917.1
2017-Dec-15 10:00N 34°35' E 134°54'1020.0
2017-Dec-15 09:30N 34°31' E 134°43'1020.9
2017-Dec-15 09:00N 34°27' E 134°32'1120.8
2017-Dec-15 08:30N 34°23' E 134°20'1019.4
2017-Dec-15 08:00N 34°26' E 134°08'5 0.3
2017-Dec-14 17:54N 34°27' E 134°03'1119.5
2017-Dec-14 17:20N 34°24' E 134°16'720.6
2017-Dec-14 17:00N 34°26' E 134°24'1020.7
2017-Dec-14 16:30N 34°29' E 134°36'1020.3
2017-Dec-14 16:00N 34°33' E 134°47'1717.4
2017-Dec-14 15:00N 34°36' E 135°08'1020.0
2017-Dec-14 14:31N 34°37' E 135°20'5 9.6
2017-Dec-14 14:00N 34°37' E 135°26'0 0.0
2017-Dec-14 13:30N 34°37' E 135°26'0 0.0
2017-Dec-14 13:00N 34°37' E 135°26'0 0.0
2017-Dec-14 12:30N 34°37' E 135°26'0 0.0
2017-Dec-14 12:00N 34°37' E 135°26'1 2.8
2017-Dec-14 11:31N 34°37' E 135°24'918.1
2017-Dec-14 11:00N 34°35' E 135°14'1019.6
2017-Dec-14 10:31N 34°36' E 135°02'918.2
2017-Dec-14 10:01N 34°34' E 134°51'1020.1
2017-Dec-14 09:31N 34°30' E 134°40'1020.5
2017-Dec-14 09:00N 34°26' E 134°28'1120.1
2017-Dec-14 08:28N 34°23' E 134°16'2914.9
2017-Dec-14 06:31N 34°18' E 133°41'017.7
2017-Dec-14 06:31N 34°18' E 133°41'27 2.0
2017-Dec-13 17:05N 34°25' E 134°13'319.7
2017-Dec-13 16:56N 34°24' E 134°17'920.3
2017-Dec-13 16:30N 34°27' E 134°27'1020.5
2017-Dec-13 16:00N 34°31' E 134°38'1019.9
2017-Dec-13 15:30N 34°34' E 134°49'918.7
2017-Dec-13 15:00N 34°38' E 135°00'917.8
2017-Dec-13 14:31N 34°36' E 135°11'1019.3
2017-Dec-13 14:01N 34°38' E 135°22'3 5.7
2017-Dec-13 13:30N 34°37' E 135°26'0 0.0
2017-Dec-13 12:58N 34°37' E 135°26'0 0.0
2017-Dec-13 12:31N 34°37' E 135°26'0 0.0
2017-Dec-13 12:01N 34°37' E 135°26'0 0.2
2017-Dec-13 11:30N 34°37' E 135°26'612.9
2017-Dec-13 11:00N 34°36' E 135°18'1020.1
2017-Dec-13 10:30N 34°35' E 135°06'918.6
2017-Dec-13 10:00N 34°35' E 134°55'1020.5
2017-Dec-13 09:30N 34°31' E 134°43'1020.8
2017-Dec-13 09:00N 34°27' E 134°32'1020.8
2017-Dec-13 08:30N 34°24' E 134°20'3215.4
2017-Dec-13 06:25N 34°18' E 133°41'20 1.5
2017-Dec-12 17:18N 34°27' E 134°03'620.0
2017-Dec-12 17:00N 34°26' E 134°11'1019.3
2017-Dec-12 16:30N 34°25' E 134°22'1020.5
2017-Dec-12 16:00N 34°29' E 134°34'1019.9
2017-Dec-12 15:30N 34°33' E 134°45'919.0
2017-Dec-12 15:01N 34°36' E 134°56'816.6
2017-Dec-12 14:30N 34°36' E 135°06'1019.5
2017-Dec-12 14:01N 34°37' E 135°17'713.6
2017-Dec-12 13:31N 34°37' E 135°26'0 0.4
2017-Dec-12 13:00N 34°37' E 135°26'0 0.0
2017-Dec-12 12:30N 34°37' E 135°26'0 0.0
2017-Dec-12 12:00N 34°37' E 135°26'0 0.3
2017-Dec-12 11:30N 34°37' E 135°26'611.7
2017-Dec-12 11:00N 34°36' E 135°19'714.3
2017-Dec-12 10:30N 34°35' E 135°10'917.1
2017-Dec-12 10:00N 34°37' E 135°00'1020.9
2017-Dec-12 09:30N 34°33' E 134°49'1121.1
2017-Dec-12 09:01N 34°29' E 134°37'1121.2
2017-Dec-12 08:28N 34°25' E 134°24'1020.7
2017-Dec-12 08:00N 34°24' E 134°12'8 0.6
2017-Dec-11 17:07N 34°27' E 134°03'517.4
2017-Dec-11 16:51N 34°26' E 134°08'1017.6
2017-Dec-11 16:16N 34°25' E 134°21'518.3
2017-Dec-11 16:00N 34°26' E 134°26'918.4
2017-Dec-11 15:30N 34°30' E 134°37'918.3
2017-Dec-11 15:00N 34°33' E 134°47'918.4
2017-Dec-11 14:30N 34°37' E 134°57'816.9
2017-Dec-11 14:00N 34°36' E 135°07'1019.1
2017-Dec-11 13:30N 34°37' E 135°19'611.6
2017-Dec-11 13:00N 34°37' E 135°26'0 0.0
2017-Dec-11 12:28N 34°37' E 135°26'0 0.0
2017-Dec-11 11:55N 34°37' E 135°26'0 0.0
2017-Dec-11 11:28N 34°37' E 135°26'0 0.0
2017-Dec-11 10:58N 34°37' E 135°26'0 0.0
2017-Dec-11 10:28N 34°37' E 135°26'0 0.0
2017-Dec-11 09:58N 34°37' E 135°26'0 0.0
2017-Dec-11 09:28N 34°37' E 135°26'0 0.0
2017-Dec-11 08:58N 34°37' E 135°26'0 0.0
2017-Dec-11 08:28N 34°37' E 135°26'0 0.0
2017-Dec-11 07:58N 34°37' E 135°26'0 0.0
2017-Dec-11 07:28N 34°37' E 135°26'0 0.0
2017-Dec-11 06:52N 34°37' E 135°26'0 0.0
2017-Dec-11 06:28N 34°37' E 135°26'0 0.0
2017-Dec-11 05:58N 34°37' E 135°26'0 0.0
2017-Dec-11 05:28N 34°37' E 135°26'0 0.0
2017-Dec-11 04:58N 34°37' E 135°26'0 0.0
2017-Dec-11 04:28N 34°37' E 135°26'0 0.0
2017-Dec-11 03:58N 34°37' E 135°26'0 0.0
2017-Dec-11 03:28N 34°37' E 135°26'0 0.0
2017-Dec-11 02:55N 34°37' E 135°26'0 0.0
2017-Dec-11 02:28N 34°37' E 135°26'0 0.0
2017-Dec-11 01:58N 34°37' E 135°26'0 0.0
2017-Dec-11 01:28N 34°37' E 135°26'0 0.0
2017-Dec-11 00:58N 34°37' E 135°26'0 0.0
2017-Dec-11 00:28N 34°37' E 135°26'0 0.0
2017-Dec-10 23:58N 34°37' E 135°26'0 0.0
2017-Dec-10 23:25N 34°37' E 135°26'0 0.0
2017-Dec-10 22:58N 34°37' E 135°26'0 0.0
2017-Dec-10 22:28N 34°37' E 135°26'0 0.0
2017-Dec-10 21:58N 34°37' E 135°26'0 0.0
2017-Dec-10 21:28N 34°37' E 135°26'0 0.2
2017-Dec-10 21:00N 34°37' E 135°26'611.8
2017-Dec-10 20:30N 34°36' E 135°19'918.8
2017-Dec-10 20:00N 34°35' E 135°07'917.3
2017-Dec-10 19:30N 34°36' E 134°57'1019.0
2017-Dec-10 19:00N 34°32' E 134°47'1019.3
2017-Dec-10 18:30N 34°29' E 134°36'1019.5
2017-Dec-10 18:00N 34°25' E 134°25'918.9
2017-Dec-10 17:30N 34°24' E 134°13'917.8
2017-Dec-10 17:00N 34°26' E 134°03'2014.1
2017-Dec-10 15:36N 34°18' E 133°41'21 0.9
2017-Dec-09 17:06N 34°27' E 134°03'417.4
2017-Dec-09 16:51N 34°26' E 134°09'917.6
2017-Dec-09 16:20N 34°25' E 134°19'617.8
2017-Dec-09 16:00N 34°27' E 134°26'918.1
2017-Dec-09 15:30N 34°31' E 134°36'918.7
2017-Dec-09 15:00N 34°34' E 134°47'1019.2
2017-Dec-09 14:30N 34°37' E 134°58'918.0
2017-Dec-09 14:01N 34°36' E 135°08'918.6
2017-Dec-09 13:31N 34°37' E 135°20'510.2
2017-Dec-09 13:01N 34°37' E 135°26'0 0.0
2017-Dec-09 12:28N 34°37' E 135°26'0 0.0
2017-Dec-09 11:58N 34°37' E 135°26'0 0.0
2017-Dec-09 11:28N 34°37' E 135°26'0 0.0
2017-Dec-09 10:58N 34°37' E 135°26'0 0.0
2017-Dec-09 10:28N 34°37' E 135°26'0 0.0
2017-Dec-09 09:58N 34°37' E 135°26'0 0.0
2017-Dec-09 09:25N 34°37' E 135°26'0 0.0
2017-Dec-09 08:58N 34°37' E 135°26'0 0.0
2017-Dec-09 08:28N 34°37' E 135°26'0 0.0
2017-Dec-09 07:58N 34°37' E 135°26'0 0.0
2017-Dec-09 07:28N 34°37' E 135°26'0 0.0
2017-Dec-09 06:58N 34°37' E 135°26'0 0.0
2017-Dec-09 06:25N 34°37' E 135°26'0 0.0
2017-Dec-09 05:58N 34°37' E 135°26'0 0.0
2017-Dec-09 05:28N 34°37' E 135°26'0 0.0
2017-Dec-09 04:58N 34°37' E 135°26'0 0.0
2017-Dec-09 04:28N 34°37' E 135°26'0 0.0
2017-Dec-09 03:58N 34°37' E 135°26'0 0.0
2017-Dec-09 03:28N 34°37' E 135°26'0 0.0
2017-Dec-09 02:58N 34°37' E 135°26'0 0.0
2017-Dec-09 02:28N 34°37' E 135°26'0 0.0
2017-Dec-09 01:58N 34°37' E 135°26'0 0.0
2017-Dec-09 01:25N 34°37' E 135°26'0 0.0
2017-Dec-09 00:58N 34°37' E 135°26'0 0.0
2017-Dec-09 00:30N 34°37' E 135°26'0 0.0
2017-Dec-08 23:58N 34°37' E 135°26'0 0.0
2017-Dec-08 23:28N 34°37' E 135°26'0 0.0
2017-Dec-08 22:58N 34°37' E 135°26'0 0.0
2017-Dec-08 22:28N 34°37' E 135°26'0 0.0
2017-Dec-08 21:58N 34°37' E 135°26'0 0.0
2017-Dec-08 21:28N 34°37' E 135°26'0 0.1
2017-Dec-08 21:00N 34°37' E 135°26'612.5
2017-Dec-08 20:30N 34°35' E 135°19'918.5
2017-Dec-08 20:00N 34°35' E 135°07'1019.0
2017-Dec-08 19:31N 34°36' E 134°56'1020.2
2017-Dec-08 19:00N 34°31' E 134°45'1019.4
2017-Dec-08 18:30N 34°27' E 134°34'1019.2
2017-Dec-08 18:00N 34°24' E 134°23'1019.1
2017-Dec-08 17:30N 34°25' E 134°12'2614.6
2017-Dec-08 15:45N 34°18' E 133°41'  

Dump ship's entire track history